Time;durP1;ratioP1;P1;durP2;ratioP2;P2;SDS_P1;SDS_P2;PMS_P1;PMS_P2;Temp;Humidity;BMP_temperature;BMP_pressure;BME280_temperature;BME280_humidity;BME280_pressure;Samples;Min_cycle;Max_cycle;Signal;HPM_P1;HPM_P2
2023/02/11 00:00:53;;;;;;;60.17;29.50;;;;;;;5.25;84.22;102370.06;5077992;28;20202;-82
2023/02/11 00:03:20;;;;;;;62.93;31.03;;;;;;;5.26;84.33;102379.72;5072372;28;20213;-83
2023/02/11 00:05:46;;;;;;;60.87;30.70;;;;;;;5.28;84.52;102377.06;5073711;28;20770;-81
2023/02/11 00:08:15;;;;;;;58.53;29.00;;;;;;;5.28;84.45;102377.94;5074167;28;20201;-82
2023/02/11 00:10:45;;;;;;;58.87;30.70;;;;;;;5.30;84.54;102377.91;5071202;28;20240;-81
2023/02/11 00:13:13;;;;;;;60.43;32.17;;;;;;;5.28;84.72;102377.94;5077724;28;20233;-82
2023/02/11 00:15:39;;;;;;;60.93;30.03;;;;;;;5.30;84.69;102376.16;5076008;28;20225;-82
2023/02/11 00:18:05;;;;;;;67.83;32.33;;;;;;;5.30;84.61;102360.31;5073063;28;20205;-83
2023/02/11 00:20:32;;;;;;;59.30;33.07;;;;;;;5.31;84.68;102340.03;5078143;28;20205;-82
2023/02/11 00:22:58;;;;;;;71.87;33.17;;;;;;;5.31;84.90;102333.00;5072978;28;20224;-82
2023/02/11 00:25:25;;;;;;;75.03;37.70;;;;;;;5.29;85.04;102340.06;5071499;28;20206;-83
2023/02/11 00:27:51;;;;;;;64.73;34.13;;;;;;;5.29;85.36;102339.19;5075802;28;20204;-82
2023/02/11 00:30:23;;;;;;;62.03;32.03;;;;;;;5.34;85.38;102366.41;5088942;28;20205;-81
2023/02/11 00:32:50;;;;;;;58.67;30.13;;;;;;;5.35;85.59;102382.25;5072750;28;20309;-80
2023/02/11 00:35:17;;;;;;;65.87;32.10;;;;;;;5.35;85.42;102373.47;5072818;28;20323;-82
2023/02/11 00:37:43;;;;;;;61.33;30.43;;;;;;;5.34;85.89;102366.41;5071928;28;20202;-80
2023/02/11 00:40:11;;;;;;;59.30;29.20;;;;;;;5.35;85.46;102366.41;5080851;28;20208;-79
2023/02/11 00:42:37;;;;;;;59.60;30.60;;;;;;;5.37;85.55;102375.19;5075480;28;20229;-82
2023/02/11 00:45:04;;;;;;;65.57;32.73;;;;;;;5.39;85.52;102372.50;5073698;28;20201;-80
2023/02/11 00:47:32;;;;;;;60.07;29.13;;;;;;;5.41;85.71;102361.00;5073878;28;20212;-80
2023/02/11 00:49:59;;;;;;;67.60;33.50;;;;;;;5.40;85.67;102358.38;5076595;28;20216;-80
2023/02/11 00:52:26;;;;;;;65.60;31.47;;;;;;;5.42;86.24;102370.69;5073213;28;20220;-81
2023/02/11 00:54:52;;;;;;;65.73;32.70;;;;;;;5.41;86.26;102368.06;5070683;28;20235;-82
2023/02/11 00:57:19;;;;;;;64.80;31.10;;;;;;;5.42;86.07;102373.31;5072497;28;20216;-81
2023/02/11 00:59:45;;;;;;;59.10;30.80;;;;;;;5.43;85.94;102377.72;5072278;28;20213;-80
2023/02/11 01:02:12;;;;;;;65.00;34.30;;;;;;;5.44;86.42;102384.75;5075917;28;20266;-83
2023/02/11 01:04:40;;;;;;;68.57;34.33;;;;;;;5.45;86.57;102375.94;5077434;28;20201;-82
2023/02/11 01:07:07;;;;;;;60.07;31.17;;;;;;;5.45;86.57;102382.97;5074542;28;20208;-82
2023/02/11 01:09:33;;;;;;;58.10;29.20;;;;;;;5.47;87.15;102376.78;5066217;28;20703;-82
2023/02/11 01:12:00;;;;;;;69.30;32.30;;;;;;;5.47;87.11;102383.84;5067903;28;20225;-81
2023/02/11 01:14:26;;;;;;;65.60;32.40;;;;;;;5.48;87.00;102382.94;5080164;28;20596;-81
2023/02/11 01:16:53;;;;;;;68.47;33.23;;;;;;;5.49;87.10;102392.63;5075625;28;20602;-82
2023/02/11 01:19:19;;;;;;;72.27;33.53;;;;;;;5.46;87.54;102376.81;5072591;28;20209;-79
2023/02/11 01:21:47;;;;;;;60.40;31.67;;;;;;;5.49;87.54;102374.13;5074666;28;20220;-83
2023/02/11 01:24:14;;;;;;;60.20;30.30;;;;;;;5.48;87.91;102373.25;5072924;28;20200;-82
2023/02/11 01:26:40;;;;;;;64.70;31.50;;;;;;;5.50;87.79;102357.38;5080581;28;20756;-82
2023/02/11 01:29:08;;;;;;;66.37;30.17;;;;;;;5.51;87.77;102359.13;5071331;28;20213;-81
2023/02/11 01:31:34;;;;;;;64.63;32.80;;;;;;;5.48;88.12;102354.75;5075905;28;20588;-83
2023/02/11 01:34:01;;;;;;;66.70;32.87;;;;;;;5.48;88.00;102359.16;5073210;28;20201;-80
2023/02/11 01:36:27;;;;;;;67.53;32.30;;;;;;;5.47;88.55;102360.94;5074462;28;20580;-80
2023/02/11 01:38:55;;;;;;;71.00;33.50;;;;;;;5.47;88.80;102352.13;5070781;28;20213;-80
2023/02/11 01:41:22;;;;;;;68.43;32.97;;;;;;;5.46;88.42;102335.41;5069277;28;20221;-81
2023/02/11 01:43:50;;;;;;;68.67;33.97;;;;;;;5.46;89.27;102340.69;5077101;28;20205;-81
2023/02/11 01:46:34;;;;;;;64.63;33.57;;;;;;;5.47;89.27;102330.97;5073779;28;20196;-80
2023/02/11 01:49:05;;;;;;;61.03;31.87;;;;;;;5.46;89.44;102329.25;5071434;28;20193;-82
2023/02/11 01:51:36;;;;;;;70.30;33.27;;;;;;;5.46;89.47;102327.47;5070193;28;20607;-79
2023/02/11 01:59:46;;;;;;;66.00;32.20;;;;;;;5.38;91.11;102317.91;5075794;28;20208;-81
2023/02/11 02:02:17;;;;;;;63.27;31.93;;;;;;;5.39;90.92;102309.06;5073417;28;20568;-81
2023/02/11 02:04:51;;;;;;;63.30;31.47;;;;;;;5.39;91.11;102302.03;5071447;28;20193;-82
2023/02/11 02:07:25;;;;;;;63.07;32.13;;;;;;;5.38;91.25;102300.28;5070754;28;20465;-80
2023/02/11 02:10:00;;;;;;;65.40;35.63;;;;;;;5.36;92.10;102282.72;5072112;28;20696;-81
2023/02/11 02:12:26;;;;;;;61.20;31.70;;;;;;;5.35;92.21;102284.50;5073642;28;20224;-81
2023/02/11 02:15:15;;;;;;;73.00;33.27;;;;;;;5.37;91.91;102282.72;5074134;28;20210;-81
2023/02/11 02:17:48;;;;;;;67.03;32.57;;;;;;;5.37;92.92;102279.19;5072127;28;20216;-81
2023/02/11 02:20:52;;;;;;;68.07;33.73;;;;;;;5.38;92.77;102270.34;5074927;28;20649;-81
2023/02/11 02:23:51;;;;;;;64.33;32.23;;;;;;;5.35;92.93;102267.78;5041357;28;20228;-82
2023/02/11 02:26:59;;;;;;;61.80;32.23;;;;;;;5.37;93.30;102258.94;5059965;28;20614;-81
2023/02/11 02:29:49;;;;;;;65.00;33.73;;;;;;;5.35;94.51;102257.22;5049505;28;20213;-82
2023/02/11 02:32:37;;;;;;;73.13;33.13;;;;;;;5.35;93.99;102258.09;5066529;28;20624;-82
2023/02/11 02:35:15;;;;;;;66.87;34.43;;;;;;;5.38;93.86;102258.00;5073879;28;20198;-82
2023/02/11 02:37:50;;;;;;;71.97;33.63;;;;;;;5.37;93.95;102264.22;5072087;28;20367;-82
2023/02/11 02:40:21;;;;;;;64.60;34.00;;;;;;;5.40;94.08;102272.06;5073142;28;20214;-82
2023/02/11 02:42:49;;;;;;;66.87;32.47;;;;;;;5.38;94.19;102281.78;5072900;28;20233;-81
2023/02/11 02:45:16;;;;;;;73.23;36.30;;;;;;;5.37;94.81;102279.19;5077209;28;20204;-82
2023/02/11 02:47:44;;;;;;;68.53;33.00;;;;;;;5.38;94.88;102287.06;5071251;28;20209;-81
2023/02/11 02:50:15;;;;;;;67.53;32.50;;;;;;;5.38;95.05;102284.44;5068768;28;20215;-82
2023/02/11 02:52:50;;;;;;;66.13;33.70;;;;;;;5.39;95.39;102280.88;5072394;28;20225;-81
2023/02/11 02:55:43;;;;;;;68.70;35.57;;;;;;;5.38;95.18;102268.56;5076109;28;20553;-82
2023/02/11 02:58:36;;;;;;;54.33;26.83;;;;;;;5.39;95.37;102259.75;5062776;28;20201;-80
2023/02/11 03:01:12;;;;;;;62.20;32.20;;;;;;;5.37;95.61;102266.84;5067182;28;20178;-83
2023/02/11 03:03:47;;;;;;;61.30;31.07;;;;;;;5.36;96.20;102254.53;5068100;28;20210;-80
2023/02/11 03:06:23;;;;;;;64.40;32.87;;;;;;;5.37;96.11;102244.84;5070515;28;20610;-83
2023/02/11 03:08:55;;;;;;;65.27;33.13;;;;;;;5.37;96.22;102256.28;5068474;28;20451;-81
2023/02/11 03:11:24;;;;;;;66.37;32.37;;;;;;;5.35;96.95;102258.09;5067396;28;20221;-81
2023/02/11 03:13:52;;;;;;;64.33;32.00;;;;;;;5.34;96.67;102248.41;5072333;28;20201;-81
2023/02/11 03:16:21;;;;;;;61.93;31.50;;;;;;;5.36;96.78;102254.53;5069761;28;20228;-80
2023/02/11 03:18:55;;;;;;;67.53;33.23;;;;;;;5.37;96.54;102248.38;5072354;28;20193;-82
2023/02/11 03:21:23;;;;;;;62.93;31.37;;;;;;;5.38;96.92;102236.88;5075628;28;20233;-81
2023/02/11 03:23:54;;;;;;;66.17;32.03;;;;;;;5.37;97.12;102235.16;5068899;28;20279;-80
2023/02/11 03:26:25;;;;;;;71.07;34.20;;;;;;;5.36;97.49;102222.84;5073495;28;20683;-82
2023/02/11 03:29:00;;;;;;;66.43;32.00;;;;;;;5.37;97.11;102216.66;5062460;28;20193;-82
2023/02/11 03:31:32;;;;;;;59.30;28.53;;;;;;;5.37;97.52;102205.22;5080603;28;20231;-83
2023/02/11 03:34:05;;;;;;;58.33;30.63;;;;;;;5.38;97.60;102217.50;5067994;28;20205;-82
2023/02/11 03:36:39;;;;;;;59.13;30.83;;;;;;;5.38;98.05;102207.81;5072775;28;20260;-80
2023/02/11 03:39:09;;;;;;;60.00;30.50;;;;;;;5.38;97.68;102213.09;5077715;28;20204;-80
2023/02/11 03:41:37;;;;;;;62.60;32.33;;;;;;;5.38;97.94;102205.16;5075955;28;20222;-82
2023/02/11 03:44:05;;;;;;;62.37;33.50;;;;;;;5.38;98.16;102206.94;5071097;28;20208;-82
2023/02/11 03:46:37;;;;;;;54.67;30.83;;;;;;;5.35;98.24;102202.59;5078690;28;20204;-81
2023/02/11 03:49:09;;;;;;;66.80;31.47;;;;;;;5.37;98.20;102203.44;5075280;28;20204;-81
2023/02/11 03:51:38;;;;;;;61.70;30.30;;;;;;;5.41;98.75;102217.47;5078850;28;20240;-82
2023/02/11 03:54:10;;;;;;;64.47;31.97;;;;;;;5.40;98.74;102216.59;5078476;28;20269;-83
2023/02/11 03:56:41;;;;;;;59.93;30.90;;;;;;;5.41;98.77;102225.38;5076293;28;20213;-82
2023/02/11 03:59:08;;;;;;;54.07;30.23;;;;;;;5.41;98.60;102210.41;5080482;28;20717;-82
2023/02/11 04:01:35;;;;;;;56.33;29.63;;;;;;;5.41;98.90;102228.91;5079112;28;20240;-81
2023/02/11 04:04:01;;;;;;;57.40;29.33;;;;;;;5.41;98.71;102220.09;5075584;28;20197;-80
2023/02/11 04:06:29;;;;;;;61.40;31.87;;;;;;;5.41;98.85;102226.25;5076352;28;20212;-80
2023/02/11 04:08:56;;;;;;;67.50;32.07;;;;;;;5.38;99.17;102222.78;5075038;28;20208;-82
2023/02/11 04:11:22;;;;;;;53.53;30.43;;;;;;;5.40;99.28;102234.22;5078792;28;20233;-81
2023/02/11 04:13:48;;;;;;;56.17;29.10;;;;;;;5.41;99.12;102231.53;5075823;28;20196;-80
2023/02/11 04:16:15;;;;;;;60.73;30.47;;;;;;;5.40;99.75;102234.22;5077875;28;20228;-83
2023/02/11 04:18:41;;;;;;;56.93;29.53;;;;;;;5.41;99.33;102234.19;5074884;28;20920;-83
2023/02/11 04:21:08;;;;;;;52.23;29.53;;;;;;;5.42;99.27;102233.28;5072097;28;20195;-81
2023/02/11 04:23:36;;;;;;;51.73;26.93;;;;;;;5.45;99.61;102230.59;5082294;28;20216;-81
2023/02/11 04:26:03;;;;;;;51.43;27.03;;;;;;;5.43;99.65;102236.81;5081563;28;20197;-81
2023/02/11 04:28:30;;;;;;;51.17;28.93;;;;;;;5.43;99.97;102229.75;5078329;28;20283;-80
2023/02/11 04:30:57;;;;;;;53.23;28.00;;;;;;;5.41;99.98;102243.88;5081218;28;20224;-80
2023/02/11 04:33:24;;;;;;;59.33;31.00;;;;;;;5.39;100.00;102241.25;5079540;28;20247;-82
2023/02/11 04:35:50;;;;;;;56.03;31.10;;;;;;;5.39;100.00;102235.97;5082481;28;20200;-83
2023/02/11 04:38:17;;;;;;;57.53;30.07;;;;;;;5.39;100.00;102233.34;5073357;28;20213;-81
2023/02/11 04:40:45;;;;;;;55.83;26.57;;;;;;;5.41;100.00;102241.25;5076160;28;20212;-81
2023/02/11 04:43:11;;;;;;;58.20;29.17;;;;;;;5.38;100.00;102231.59;5072913;28;20237;-81
2023/02/11 04:45:38;;;;;;;58.93;29.07;;;;;;;5.39;100.00;102243.03;5074330;28;20610;-82
2023/02/11 04:48:04;;;;;;;56.23;27.60;;;;;;;5.39;100.00;102232.47;5078573;28;20209;-82
2023/02/11 04:50:31;;;;;;;53.60;29.37;;;;;;;5.37;100.00;102235.16;5068821;28;20240;-82
2023/02/11 04:52:57;;;;;;;50.63;26.63;;;;;;;5.38;100.00;102236.88;5072184;28;20224;-82
2023/02/11 04:55:26;;;;;;;57.90;29.27;;;;;;;5.36;100.00;102229.91;5067235;28;20213;-81
2023/02/11 04:57:54;;;;;;;50.63;28.03;;;;;;;5.36;100.00;102225.47;5075723;28;20221;-81
2023/02/11 05:00:21;;;;;;;53.17;28.23;;;;;;;5.36;100.00;102227.25;5061962;28;20670;-81
2023/02/11 05:02:47;;;;;;;56.70;30.20;;;;;;;5.31;100.00;102224.69;5068828;28;20221;-81
2023/02/11 05:05:14;;;;;;;54.47;28.33;;;;;;;5.32;100.00;102223.78;5066526;28;20689;-82
2023/02/11 05:07:40;;;;;;;51.40;27.80;;;;;;;5.32;100.00;102215.00;5070257;28;20208;-81
2023/02/11 05:10:07;;;;;;;48.63;26.43;;;;;;;5.32;100.00;102223.78;5074995;28;20201;-80
2023/02/11 05:12:33;;;;;;;47.37;26.67;;;;;;;5.34;100.00;102223.75;5075678;28;20228;-81
2023/02/11 05:15:01;;;;;;;47.97;27.10;;;;;;;5.33;100.00;102217.59;5076176;28;20223;-81
2023/02/11 05:17:27;;;;;;;44.13;25.83;;;;;;;5.33;100.00;102232.59;5073740;28;20224;-81
2023/02/11 05:19:54;;;;;;;43.17;24.07;;;;;;;5.32;100.00;102218.50;5068579;28;20288;-81
2023/02/11 05:22:21;;;;;;;42.07;24.47;;;;;;;5.32;100.00;102221.16;5064206;28;20891;-82
2023/02/11 05:24:47;;;;;;;40.63;23.63;;;;;;;5.31;100.00;102222.03;5073328;28;20258;-80
2023/02/11 05:27:14;;;;;;;41.13;23.57;;;;;;;5.34;100.00;102226.41;5073080;28;20204;-81
2023/02/11 05:29:40;;;;;;;38.83;24.30;;;;;;;5.34;100.00;102222.00;5072954;28;20216;-82
2023/02/11 05:32:08;;;;;;;39.80;24.80;;;;;;;5.34;100.00;102222.00;5074496;28;20227;-81
2023/02/11 05:34:35;;;;;;;40.30;24.33;;;;;;;5.32;100.00;102228.19;5072865;28;20665;-81
2023/02/11 05:37:01;;;;;;;36.97;23.63;;;;;;;5.35;100.00;102234.31;5069326;28;20605;-80
2023/02/11 05:39:27;;;;;;;41.80;25.07;;;;;;;5.35;100.00;102236.94;5074728;28;20575;-81
2023/02/11 05:41:54;;;;;;;39.83;24.47;;;;;;;5.36;100.00;102243.97;5059500;28;20725;-80
2023/02/11 05:44:23;;;;;;;39.63;23.70;;;;;;;5.36;100.00;102230.78;5059652;28;20213;-80
2023/02/11 05:46:49;;;;;;;45.73;23.67;;;;;;;5.38;100.00;102230.72;5074349;28;20209;-82
2023/02/11 05:49:18;;;;;;;42.10;23.23;;;;;;;5.40;100.00;102221.88;5064350;28;20202;-82
2023/02/11 05:51:44;;;;;;;40.87;23.57;;;;;;;5.42;100.00;102227.13;5073643;28;20221;-81
2023/02/11 05:54:11;;;;;;;42.20;24.40;;;;;;;5.43;100.00;102224.47;5074452;28;20212;-83
2023/02/11 05:56:37;;;;;;;45.17;23.43;;;;;;;5.44;100.00;102234.13;5075108;28;20267;-83
2023/02/11 05:59:04;;;;;;;43.87;24.87;;;;;;;5.45;100.00;102233.25;5071411;28;20215;-81
2023/02/11 06:01:30;;;;;;;43.80;25.57;;;;;;;5.45;100.00;102229.72;5074102;28;20225;-82
2023/02/11 06:03:57;;;;;;;43.97;24.30;;;;;;;5.47;100.00;102235.84;5072771;28;20204;-81
2023/02/11 06:06:25;;;;;;;45.63;24.70;;;;;;;5.49;100.00;102228.78;5070221;28;20220;-81
2023/02/11 06:08:51;;;;;;;44.47;25.50;;;;;;;5.51;100.00;102232.28;5072775;28;20220;-80
2023/02/11 06:11:19;;;;;;;40.93;24.13;;;;;;;5.52;100.00;102228.72;5073311;28;20593;-81
2023/02/11 06:13:45;;;;;;;48.43;26.90;;;;;;;5.51;100.00;102225.22;5068991;28;20249;-80
2023/02/11 06:16:11;;;;;;;46.77;25.40;;;;;;;5.51;100.00;102224.34;5068470;28;20219;-81
2023/02/11 06:18:38;;;;;;;47.17;26.97;;;;;;;5.50;100.00;102219.97;5069865;28;20205;-80
2023/02/11 06:21:07;;;;;;;42.97;26.00;;;;;;;5.51;100.00;102217.28;5061814;28;20198;-81
2023/02/11 06:23:35;;;;;;;43.43;25.63;;;;;;;5.51;100.00;102213.78;5075390;28;20209;-79
2023/02/11 06:26:03;;;;;;;46.77;25.47;;;;;;;5.53;100.00;102220.78;5061154;28;20201;-81
2023/02/11 06:28:30;;;;;;;49.07;27.83;;;;;;;5.54;100.00;102214.59;5070119;28;20284;-82
2023/02/11 06:30:56;;;;;;;47.97;27.17;;;;;;;5.56;100.00;102217.19;5076136;28;20205;-81
2023/02/11 06:33:23;;;;;;;48.13;26.93;;;;;;;5.54;100.00;102221.66;5068488;28;20599;-81
2023/02/11 06:35:49;;;;;;;51.50;27.00;;;;;;;5.54;100.00;102227.81;5071780;28;20205;-81
2023/02/11 06:38:16;;;;;;;44.70;26.63;;;;;;;5.56;100.00;102241.84;5067359;28;20799;-83
2023/02/11 06:40:48;;;;;;;48.93;26.60;;;;;;;5.57;100.00;102226.84;5070250;28;20209;-82
2023/02/11 06:43:15;;;;;;;47.40;25.93;;;;;;;5.60;100.00;102234.75;5079681;28;20225;-82
2023/02/11 06:45:41;;;;;;;55.63;27.57;;;;;;;5.59;100.00;102228.59;5077289;28;20216;-81
2023/02/11 06:48:08;;;;;;;46.30;27.97;;;;;;;5.62;100.00;102229.44;5068146;28;20204;-81
2023/02/11 06:50:34;;;;;;;50.43;27.53;;;;;;;5.63;100.00;102236.47;5072366;28;20220;-82
2023/02/11 06:53:01;;;;;;;49.50;26.90;;;;;;;5.61;100.00;102236.50;5066750;28;20235;-80
2023/02/11 06:55:28;;;;;;;52.73;27.80;;;;;;;5.59;100.00;102247.09;5073833;28;20212;-80
2023/02/11 06:57:56;;;;;;;47.00;27.30;;;;;;;5.63;100.00;102239.09;5069974;28;20229;-81
2023/02/11 07:00:22;;;;;;;47.60;26.20;;;;;;;5.63;100.00;102232.06;5066540;28;20693;-80
2023/02/11 07:02:49;;;;;;;50.00;27.20;;;;;;;5.65;100.00;102240.81;5076237;28;20225;-82
2023/02/11 07:05:15;;;;;;;58.50;28.23;;;;;;;5.66;100.00;102236.41;5059538;28;20216;-83
2023/02/11 07:07:42;;;;;;;52.37;28.57;;;;;;;5.67;100.00;102238.16;5073747;28;20197;-82
2023/02/11 07:10:08;;;;;;;49.13;27.03;;;;;;;5.68;100.00;102237.25;5072807;28;20201;-82
2023/02/11 07:12:35;;;;;;;54.57;27.03;;;;;;;5.70;100.00;102238.13;5065729;28;20217;-81
2023/02/11 07:15:03;;;;;;;57.00;28.20;;;;;;;5.73;100.00;102233.63;5070510;28;20201;-81
2023/02/11 07:17:29;;;;;;;55.17;28.93;;;;;;;5.73;100.00;102228.31;5073491;28;20228;-81
2023/02/11 07:19:56;;;;;;;52.37;28.07;;;;;;;5.72;100.00;102233.66;5074063;28;20207;-83
2023/02/11 07:22:22;;;;;;;57.10;30.17;;;;;;;5.72;100.00;102246.88;5074810;28;20227;-82
2023/02/11 07:24:49;;;;;;;51.77;27.23;;;;;;;5.75;100.00;102252.09;5068679;28;20204;-81
2023/02/11 07:27:15;;;;;;;58.00;29.57;;;;;;;5.72;100.00;102237.19;5071633;28;20207;-82
2023/02/11 07:29:44;;;;;;;55.03;28.00;;;;;;;5.77;100.00;102252.94;5070251;28;20208;-80
2023/02/11 07:32:12;;;;;;;53.67;26.50;;;;;;;5.79;100.00;102253.78;5068828;28;20785;-82
2023/02/11 07:34:39;;;;;;;54.57;29.23;;;;;;;5.80;100.00;102260.81;5058749;28;20210;-81
2023/02/11 07:37:05;;;;;;;66.00;29.57;;;;;;;5.81;100.00;102263.44;5063917;28;20236;-81
2023/02/11 07:39:32;;;;;;;52.23;27.60;;;;;;;5.83;100.00;102261.66;5066129;28;20204;-82
2023/02/11 07:41:58;;;;;;;55.60;27.33;;;;;;;5.84;100.00;102244.00;5069349;28;20331;-81
2023/02/11 07:44:25;;;;;;;61.50;30.53;;;;;;;5.82;100.00;102243.16;5069249;28;20205;-81
2023/02/11 07:46:52;;;;;;;50.40;27.17;;;;;;;5.83;100.00;102247.56;5060775;28;20202;-82
2023/02/11 07:49:19;;;;;;;57.23;28.53;;;;;;;5.85;100.00;102248.41;5071690;28;20197;-79
2023/02/11 07:51:47;;;;;;;54.20;29.53;;;;;;;5.86;100.00;102252.78;5067822;28;20224;-80
2023/02/11 07:54:14;;;;;;;53.30;28.60;;;;;;;5.86;100.00;102260.72;5068609;28;20676;-81
2023/02/11 07:56:43;;;;;;;53.53;29.40;;;;;;;5.88;100.00;102262.47;5070029;28;20202;-82
2023/02/11 07:59:10;;;;;;;56.77;27.73;;;;;;;5.90;100.00;102265.09;5068501;28;20212;-81
2023/02/11 08:01:37;;;;;;;54.70;28.83;;;;;;;5.89;100.00;102260.72;5064980;28;20220;-83
2023/02/11 08:04:04;;;;;;;48.57;26.40;;;;;;;5.92;100.00;102255.34;5066208;28;20212;-80
2023/02/11 08:06:39;;;;;;;53.23;27.80;;;;;;;5.94;100.00;102261.47;5069081;28;20715;-80
2023/02/11 08:09:08;;;;;;;55.13;28.80;;;;;;;5.96;100.00;102253.50;5069265;28;20669;-80
2023/02/11 08:11:35;;;;;;;53.90;29.27;;;;;;;5.96;100.00;102246.44;5062392;28;20279;-81
2023/02/11 08:14:02;;;;;;;55.00;28.23;;;;;;;5.99;100.00;102254.34;5067374;28;20567;-82
2023/02/11 08:16:30;;;;;;;58.03;28.33;;;;;;;6.02;100.00;102246.34;5071037;28;20205;-81
2023/02/11 08:19:04;;;;;;;51.50;28.17;;;;;;;6.03;100.00;102247.22;5069700;28;20247;-82
2023/02/11 08:21:32;;;;;;;49.87;27.37;;;;;;;6.06;100.00;102245.41;5076865;28;20225;-80
2023/02/11 08:23:59;;;;;;;49.10;26.80;;;;;;;6.08;100.00;102238.31;5070892;28;20212;-79
2023/02/11 08:26:27;;;;;;;49.70;26.83;;;;;;;6.10;100.00;102249.69;5065042;28;20202;-80
2023/02/11 08:28:57;;;;;;;52.53;28.20;;;;;;;6.13;100.00;102254.06;5066962;28;20196;-81
2023/02/11 08:31:26;;;;;;;68.20;32.97;;;;;;;6.12;100.00;102242.59;5070203;28;20693;-80
2023/02/11 08:33:53;;;;;;;67.00;36.37;;;;;;;6.14;100.00;102256.69;5067971;28;20197;-80
2023/02/11 08:36:23;;;;;;;56.47;30.20;;;;;;;6.14;100.00;102261.09;5065599;28;20288;-80
2023/02/11 08:38:54;;;;;;;53.63;28.70;;;;;;;6.16;100.00;102269.88;5060471;28;20232;-80
2023/02/11 08:41:20;;;;;;;56.97;28.43;;;;;;;6.16;100.00;102265.47;5064869;28;20668;-80
2023/02/11 08:43:48;;;;;;;60.43;28.77;;;;;;;6.20;100.00;102277.75;5070345;28;20204;-80
2023/02/11 08:46:17;;;;;;;65.37;33.03;;;;;;;6.22;100.00;102288.28;5062351;28;20204;-81
2023/02/11 08:48:44;;;;;;;74.00;36.90;;;;;;;6.25;100.00;102286.47;5072646;28;20574;-81
2023/02/11 08:51:14;;;;;;;84.07;37.93;;;;;;;6.26;100.00;102284.69;5062269;28;20228;-80
2023/02/11 08:53:40;;;;;;;66.33;33.20;;;;;;;6.26;99.95;102287.34;5065938;28;20220;-80
2023/02/11 08:56:10;;;;;;;65.70;35.70;;;;;;;6.29;99.99;102292.53;5067320;28;20827;-81
2023/02/11 08:58:37;;;;;;;54.50;31.67;;;;;;;6.32;100.00;102283.69;5072128;28;20225;-80
2023/02/11 09:01:09;;;;;;;47.53;25.23;;;;;;;6.34;99.65;102279.22;5066249;28;20350;-79
2023/02/11 09:03:36;;;;;;;49.57;27.03;;;;;;;6.36;99.46;102277.44;5063974;28;20208;-78
2023/02/11 09:06:05;;;;;;;51.03;27.47;;;;;;;6.38;100.00;102276.50;5065395;28;20219;-78
2023/02/11 09:08:32;;;;;;;52.97;26.73;;;;;;;6.39;99.47;102272.09;5064954;28;20209;-80
2023/02/11 09:10:59;;;;;;;51.10;27.77;;;;;;;6.41;99.41;102278.22;5064540;28;20560;-80
2023/02/11 09:13:27;;;;;;;55.67;27.60;;;;;;;6.41;99.13;102283.50;5065266;28;20220;-81
2023/02/11 09:15:53;;;;;;;48.37;26.60;;;;;;;6.42;99.27;102287.91;5065789;28;20201;-79
2023/02/11 09:18:20;;;;;;;47.70;26.47;;;;;;;6.44;98.98;102281.69;5063581;28;20229;-82
2023/02/11 09:20:46;;;;;;;51.77;28.23;;;;;;;6.45;98.85;102286.03;5065833;28;20211;-80
2023/02/11 09:23:13;;;;;;;47.47;25.87;;;;;;;6.48;99.11;102298.34;5061134;28;20700;-79
2023/02/11 09:25:40;;;;;;;47.67;27.80;;;;;;;6.50;98.87;102309.78;5066616;28;20208;-79
2023/02/11 09:28:07;;;;;;;50.70;25.70;;;;;;;6.50;99.14;102307.13;5070537;28;20208;-80
2023/02/11 09:30:36;;;;;;;44.83;26.70;;;;;;;6.55;98.86;102305.28;5069750;28;20702;-78
2023/02/11 09:33:05;;;;;;;46.97;24.87;;;;;;;6.59;99.21;102305.19;5067796;28;20221;-80
2023/02/11 09:35:33;;;;;;;44.73;25.03;;;;;;;6.63;98.53;102314.78;5065524;28;20232;-79
2023/02/11 09:38:00;;;;;;;46.77;25.47;;;;;;;6.67;99.27;102314.72;5063648;28;20694;-81
2023/02/11 09:40:26;;;;;;;48.93;24.03;;;;;;;6.69;98.60;102313.78;5069054;28;20205;-79
2023/02/11 09:43:03;;;;;;;44.07;24.70;;;;;;;6.75;98.75;102307.50;5065595;28;20227;-80
2023/02/11 09:45:32;;;;;;;47.43;23.37;;;;;;;6.76;98.63;102318.06;5063215;28;20573;-79
2023/02/11 09:48:02;;;;;;;44.63;24.93;;;;;;;6.79;98.33;102314.50;5063990;28;20214;-78
2023/02/11 09:50:32;;;;;;;47.63;25.67;;;;;;;6.82;97.65;102331.16;5060198;28;20208;-79
2023/02/11 09:53:02;;;;;;;47.03;26.63;;;;;;;6.86;98.40;102343.44;5065854;28;20228;-79
2023/02/11 09:55:32;;;;;;;50.10;23.77;;;;;;;6.91;97.58;102351.31;5065125;28;20209;-79
2023/02/11 09:58:02;;;;;;;50.43;25.33;;;;;;;6.94;98.11;102343.28;5064385;28;20616;-80
2023/02/11 10:00:34;;;;;;;48.57;28.00;;;;;;;6.94;97.05;102357.41;5064974;28;20204;-79
2023/02/11 10:03:12;;;;;;;48.80;27.67;;;;;;;6.98;96.70;102347.63;5068757;28;20588;-79
2023/02/11 10:05:52;;;;;;;44.53;25.47;;;;;;;7.02;96.47;102361.66;5067896;28;20201;-79
2023/02/11 10:08:30;;;;;;;50.67;25.27;;;;;;;7.06;97.14;102355.38;5066759;28;20189;-79
2023/02/11 10:11:04;;;;;;;46.50;25.20;;;;;;;7.09;97.02;102350.91;5068531;28;20288;-80
2023/02/11 10:13:46;;;;;;;44.90;23.10;;;;;;;7.13;96.33;102360.53;5067663;28;20649;-80
2023/02/11 10:16:29;;;;;;;46.93;24.70;;;;;;;7.13;95.96;102371.13;5060244;28;20216;-78
2023/02/11 10:19:15;;;;;;;40.37;23.13;;;;;;;7.16;95.55;102373.72;5066725;28;20224;-78
2023/02/11 10:21:51;;;;;;;46.33;25.63;;;;;;;7.15;96.05;102376.41;5067960;28;20243;-79
2023/02/11 10:24:18;;;;;;;51.23;26.47;;;;;;;7.14;95.90;102374.66;5069098;28;20201;-78
2023/02/11 10:26:46;;;;;;;49.47;26.10;;;;;;;7.16;95.77;102368.44;5066143;28;20216;-78
2023/02/11 10:29:26;;;;;;;45.20;25.57;;;;;;;7.18;95.22;102363.06;5064267;28;20213;-80
2023/02/11 10:31:53;;;;;;;47.13;23.10;;;;;;;7.19;96.03;102360.38;5062876;28;20319;-80
2023/02/11 10:34:21;;;;;;;46.40;24.90;;;;;;;7.16;95.51;102364.91;5073109;28;20661;-80
2023/02/11 10:36:47;;;;;;;48.93;25.83;;;;;;;7.14;95.79;102356.13;5067139;28;20642;-79
2023/02/11 10:39:16;;;;;;;47.57;23.60;;;;;;;7.16;95.83;102355.19;5069033;28;20224;-78
2023/02/11 10:41:45;;;;;;;48.80;25.47;;;;;;;7.15;95.49;102350.78;5067572;28;20228;-80
2023/02/11 10:44:22;;;;;;;65.60;32.30;;;;;;;7.18;96.00;102352.47;5061688;28;20213;-80
2023/02/11 10:46:50;;;;;;;48.67;25.30;;;;;;;7.22;95.48;102356.81;5067442;28;20581;-80
2023/02/11 10:52:20;;;;;;;45.03;25.50;;;;;;;7.27;96.00;102368.19;5068422;28;20579;-65
2023/02/11 10:55:06;;;;;;;45.80;26.07;;;;;;;7.30;96.19;102362.81;5058930;28;20201;-64
2023/02/11 10:57:38;;;;;;;43.57;24.03;;;;;;;7.30;95.64;102369.00;5060878;28;20209;-67
2023/02/11 11:00:20;;;;;;;42.93;23.13;;;;;;;7.34;96.25;102368.94;5084530;22;20201;-80
2023/02/11 11:02:54;;;;;;;46.87;24.77;;;;;;;7.35;96.47;102358.25;5012562;28;20658;-81
2023/02/11 11:05:27;;;;;;;43.70;23.63;;;;;;;7.38;95.68;102357.31;5003339;28;20655;-80
2023/02/11 11:07:57;;;;;;;42.67;24.03;;;;;;;7.39;95.99;102354.63;5006712;28;20719;-81
2023/02/11 11:10:35;;;;;;;40.97;23.83;;;;;;;7.38;96.25;102349.38;5005334;28;20227;-82
2023/02/11 11:13:04;;;;;;;42.53;23.83;;;;;;;7.38;95.92;102357.31;5000103;28;20273;-79
2023/02/11 11:15:32;;;;;;;44.03;23.60;;;;;;;7.38;96.54;102355.53;4997622;28;20207;-82
2023/02/11 11:18:15;;;;;;;43.10;22.57;;;;;;;7.40;95.99;102361.69;5007365;28;20222;-81
2023/02/11 11:20:52;;;;;;;38.67;21.87;;;;;;;7.40;95.75;102356.38;4998782;28;20211;-79
2023/02/11 11:23:23;;;;;;;40.63;23.63;;;;;;;7.39;96.54;102364.38;4997654;28;20230;-79
2023/02/11 11:26:01;;;;;;;42.20;21.03;;;;;;;7.42;95.78;102362.53;5000989;28;20223;-79
2023/02/11 11:28:31;;;;;;;40.57;21.73;;;;;;;7.43;96.54;102366.91;5002393;28;20231;-78
2023/02/11 11:30:59;;;;;;;38.07;21.67;;;;;;;7.44;96.65;102358.06;5000448;28;20223;-81
2023/02/11 11:33:29;;;;;;;43.07;22.87;;;;;;;7.45;96.44;102367.75;5001587;28;20711;-81